Time;durP1;ratioP1;P1;durP2;ratioP2;P2;SDS_P1;SDS_P2;PMS_P1;PMS_P2;Temp;Humidity;BMP_temperature;BMP_pressure;BME280_temperature;BME280_humidity;BME280_pressure;Samples;Min_cycle;Max_cycle;Signal;HPM_P1;HPM_P2
2021/05/07 00:01:33;;;;;;;;;;;17.30;63.00;;;;;;4189144;28;19924;-44
2021/05/07 00:03:54;;;;;;;;;;;17.30;62.90;;;;;;4174887;28;19931;-44
2021/05/07 00:06:14;;;;;;;;;;;17.30;62.80;;;;;;4174882;28;19990;-44
2021/05/07 00:08:36;;;;;;;;;;;17.30;62.80;;;;;;4191559;28;19931;-43
2021/05/07 00:11:00;;;;;;;;;;;17.30;62.80;;;;;;4190943;28;19928;-44
2021/05/07 00:13:21;;;;;;;;;;;17.20;63.00;;;;;;4191339;28;19924;-45
2021/05/07 00:15:42;;;;;;;;;;;17.10;63.40;;;;;;4191465;28;19924;-44
2021/05/07 00:18:03;;;;;;;;;;;17.10;63.80;;;;;;4174766;28;19920;-44
2021/05/07 00:20:24;;;;;;;;;;;17.00;63.70;;;;;;4174843;28;19947;-45
2021/05/07 00:22:45;;;;;;;;;;;17.00;64.00;;;;;;4174901;28;19920;-48
2021/05/07 00:25:16;;;;;;;;;;;16.90;64.00;;;;;;4182974;28;20021;-48
2021/05/07 00:27:38;;;;;;;;;;;16.90;64.20;;;;;;4180926;28;19932;-45
2021/05/07 00:29:59;;;;;;;;;;;16.90;64.20;;;;;;4174411;28;19935;-44
2021/05/07 00:32:19;;;;;;;;;;;16.90;64.00;;;;;;4189356;28;19974;-46
2021/05/07 00:34:41;;;;;;;;;;;17.00;63.70;;;;;;4190914;28;19920;-45
2021/05/07 00:37:01;;;;;;;;;;;17.10;63.50;;;;;;4190965;28;19924;-44
2021/05/07 00:39:23;;;;;;;;;;;17.20;63.20;;;;;;4191135;28;19924;-45
2021/05/07 00:41:43;;;;;;;;;;;17.30;63.00;;;;;;4191343;28;19920;-44
2021/05/07 00:44:05;;;;;;;;;;;17.30;62.60;;;;;;4194209;28;20005;-44
2021/05/07 00:46:26;;;;;;;;;;;17.30;62.90;;;;;;4177035;28;20377;-43
2021/05/07 00:48:47;;;;;;;;;;;17.20;63.00;;;;;;4176216;28;19925;-44
2021/05/07 00:51:08;;;;;;;;;;;17.20;63.20;;;;;;4177557;28;19932;-44
2021/05/07 00:53:29;;;;;;;;;;;17.10;63.40;;;;;;4176385;28;19931;-44
2021/05/07 00:55:50;;;;;;;;;;;17.10;63.60;;;;;;4193852;28;19924;-45
2021/05/07 00:58:12;;;;;;;;;;;17.00;63.70;;;;;;4192620;28;19925;-47
2021/05/07 01:00:33;;;;;;;;;;;17.00;63.90;;;;;;4192178;28;20373;-44
2021/05/07 01:02:55;;;;;;;;;;;16.90;64.20;;;;;;4193296;28;19920;-46
2021/05/07 01:05:17;;;;;;;;;;;16.90;64.20;;;;;;4192651;28;19928;-44
2021/05/07 01:07:37;;;;;;;;;;;16.80;64.30;;;;;;4193989;28;19924;-48
2021/05/07 01:10:00;;;;;;;;;;;16.80;64.60;;;;;;4193871;28;19981;-44
2021/05/07 01:12:21;;;;;;;;;;;16.70;64.80;;;;;;4193946;28;19924;-44
2021/05/07 01:14:43;;;;;;;;;;;16.70;65.00;;;;;;4193491;28;19947;-44
2021/05/07 01:17:05;;;;;;;;;;;16.60;65.30;;;;;;4193736;28;19924;-47
2021/05/07 01:19:25;;;;;;;;;;;16.60;65.50;;;;;;4181092;28;20403;-48
2021/05/07 01:21:48;;;;;;;;;;;16.60;65.30;;;;;;4177027;28;19971;-50
2021/05/07 01:24:08;;;;;;;;;;;16.70;65.30;;;;;;4177362;28;19932;-50
2021/05/07 01:26:29;;;;;;;;;;;16.80;65.00;;;;;;4193935;28;19970;-49
2021/05/07 01:28:50;;;;;;;;;;;16.90;64.30;;;;;;4192105;28;19931;-47
2021/05/07 01:31:11;;;;;;;;;;;17.10;64.00;;;;;;4193095;28;19946;-48
2021/05/07 01:33:35;;;;;;;;;;;17.20;63.60;;;;;;4193513;28;19925;-47
2021/05/07 01:35:56;;;;;;;;;;;17.20;63.10;;;;;;4190968;28;19932;-45
2021/05/07 01:38:18;;;;;;;;;;;17.20;63.10;;;;;;4192345;28;19920;-44
2021/05/07 01:40:41;;;;;;;;;;;17.20;63.10;;;;;;4193321;28;19924;-45
2021/05/07 01:43:03;;;;;;;;;;;17.20;63.20;;;;;;4191915;28;20370;-44
2021/05/07 01:45:25;;;;;;;;;;;17.10;63.40;;;;;;4193406;28;19928;-49
2021/05/07 01:47:47;;;;;;;;;;;17.10;63.60;;;;;;4191670;28;19920;-44
2021/05/07 01:50:09;;;;;;;;;;;17.00;63.90;;;;;;4193034;28;19921;-47
2021/05/07 01:52:29;;;;;;;;;;;17.00;64.00;;;;;;4192387;28;20449;-44
2021/05/07 01:54:51;;;;;;;;;;;17.00;63.90;;;;;;4193210;28;19931;-44
2021/05/07 01:57:12;;;;;;;;;;;17.00;63.90;;;;;;4193366;28;20394;-45
2021/05/07 01:59:33;;;;;;;;;;;17.00;63.80;;;;;;4191684;28;20007;-46
2021/05/07 02:01:54;;;;;;;;;;;17.00;63.90;;;;;;4192527;28;20005;-44
2021/05/07 02:04:15;;;;;;;;;;;17.00;64.10;;;;;;4191559;28;19966;-44
2021/05/07 02:06:37;;;;;;;;;;;17.00;63.90;;;;;;4191042;28;19998;-44
2021/05/07 02:08:58;;;;;;;;;;;17.10;63.90;;;;;;4191635;28;20349;-44
2021/05/07 02:11:23;;;;;;;;;;;17.10;63.70;;;;;;4192995;28;20024;-44
2021/05/07 02:13:44;;;;;;;;;;;17.10;64.40;;;;;;4192994;28;19970;-46
2021/05/07 02:16:05;;;;;;;;;;;17.10;63.60;;;;;;4192550;28;20061;-45
2021/05/07 02:18:26;;;;;;;;;;;17.00;63.70;;;;;;4191319;28;20014;-45
2021/05/07 02:20:51;;;;;;;;;;;17.10;63.70;;;;;;4192347;28;19944;-45
2021/05/07 02:23:14;;;;;;;;;;;17.20;63.40;;;;;;4192584;28;19935;-45
2021/05/07 02:25:36;;;;;;;;;;;17.20;63.20;;;;;;4192693;28;19967;-44
2021/05/07 02:28:00;;;;;;;;;;;17.20;63.20;;;;;;4192687;28;20383;-46
2021/05/07 02:30:25;;;;;;;;;;;17.10;63.50;;;;;;4190919;28;20000;-44
2021/05/07 02:32:46;;;;;;;;;;;17.00;63.70;;;;;;4192571;28;19920;-44
2021/05/07 02:35:08;;;;;;;;;;;16.90;63.90;;;;;;4190884;28;19974;-44
2021/05/07 02:37:29;;;;;;;;;;;16.90;65.00;;;;;;4192346;28;20378;-44
2021/05/07 02:39:50;;;;;;;;;;;16.80;64.40;;;;;;4174904;28;19929;-45
2021/05/07 02:42:11;;;;;;;;;;;16.80;64.30;;;;;;4174456;28;19930;-48
2021/05/07 02:44:33;;;;;;;;;;;16.80;64.30;;;;;;4174581;28;19927;-44
2021/05/07 02:46:54;;;;;;;;;;;16.80;64.20;;;;;;4191925;28;19974;-49
2021/05/07 02:49:15;;;;;;;;;;;16.80;64.20;;;;;;4192492;28;20018;-50
2021/05/07 02:51:36;;;;;;;;;;;16.80;64.40;;;;;;4190681;28;19983;-49
2021/05/07 02:53:57;;;;;;;;;;;16.80;64.40;;;;;;4192290;28;19982;-44
2021/05/07 02:56:18;;;;;;;;;;;16.70;64.60;;;;;;4190968;28;19938;-44
2021/05/07 02:58:39;;;;;;;;;;;16.60;64.90;;;;;;4190810;28;20483;-44
2021/05/07 03:01:01;;;;;;;;;;;16.60;64.90;;;;;;4190078;28;19938;-44
2021/05/07 03:03:22;;;;;;;;;;;16.60;64.70;;;;;;4191940;28;19955;-44
2021/05/07 03:05:43;;;;;;;;;;;16.60;64.80;;;;;;4190975;28;20011;-44
2021/05/07 03:08:04;;;;;;;;;;;16.50;64.90;;;;;;4192291;28;19920;-45
2021/05/07 03:10:25;;;;;;;;;;;16.50;65.20;;;;;;4191943;28;20447;-44
2021/05/07 03:12:46;;;;;;;;;;;16.50;66.20;;;;;;4191929;28;19982;-44
2021/05/07 03:15:07;;;;;;;;;;;16.60;65.30;;;;;;4191674;28;19976;-45
2021/05/07 03:17:28;;;;;;;;;;;16.60;64.80;;;;;;4191880;28;19990;-45
2021/05/07 03:19:49;;;;;;;;;;;16.80;64.20;;;;;;4191583;28;19925;-45
2021/05/07 03:22:10;;;;;;;;;;;17.00;63.60;;;;;;4191951;28;19928;-44
2021/05/07 03:24:31;;;;;;;;;;;17.10;63.00;;;;;;4191833;28;19924;-46
2021/05/07 03:26:51;;;;;;;;;;;17.20;62.70;;;;;;4192071;28;19927;-44
2021/05/07 03:29:12;;;;;;;;;;;17.20;62.70;;;;;;4191799;28;19924;-45
2021/05/07 03:31:34;;;;;;;;;;;17.20;62.60;;;;;;4175015;28;19931;-44
2021/05/07 03:33:56;;;;;;;;;;;17.10;62.70;;;;;;4175334;28;19928;-44
2021/05/07 03:36:17;;;;;;;;;;;17.10;62.90;;;;;;4175080;28;19934;-45
2021/05/07 03:38:38;;;;;;;;;;;17.00;62.80;;;;;;4175299;28;19924;-45
2021/05/07 03:40:59;;;;;;;;;;;17.10;62.90;;;;;;4175202;28;19931;-45
2021/05/07 03:43:20;;;;;;;;;;;17.10;62.90;;;;;;4175056;28;19928;-44
2021/05/07 03:45:41;;;;;;;;;;;17.00;63.00;;;;;;4188134;28;19924;-44
2021/05/07 03:48:12;;;;;;;;;;;16.90;63.20;;;;;;4191380;28;20007;-44
2021/05/07 03:50:34;;;;;;;;;;;16.90;63.10;;;;;;4191387;28;20405;-46
2021/05/07 03:52:55;;;;;;;;;;;17.00;63.10;;;;;;4191428;28;19963;-44
2021/05/07 03:55:16;;;;;;;;;;;16.90;63.00;;;;;;4190133;28;20398;-44
2021/05/07 03:57:38;;;;;;;;;;;16.90;63.10;;;;;;4191739;28;19935;-44
2021/05/07 03:59:59;;;;;;;;;;;17.00;62.70;;;;;;4191168;28;20371;-44
2021/05/07 04:02:19;;;;;;;;;;;17.00;62.80;;;;;;4190133;28;20382;-45
2021/05/07 04:04:43;;;;;;;;;;;17.10;62.50;;;;;;4191557;28;20353;-44
2021/05/07 04:07:05;;;;;;;;;;;17.20;62.10;;;;;;4191334;28;19924;-44
2021/05/07 04:09:31;;;;;;;;;;;17.30;61.80;;;;;;4191332;28;19924;-44
2021/05/07 04:11:55;;;;;;;;;;;17.40;61.60;;;;;;4191579;28;20306;-46
2021/05/07 04:14:16;;;;;;;;;;;17.40;61.60;;;;;;4190574;28;19924;-45
2021/05/07 04:16:37;;;;;;;;;;;17.30;61.50;;;;;;4191639;28;19921;-44
2021/05/07 04:18:58;;;;;;;;;;;17.30;61.90;;;;;;4194624;28;20003;-44
2021/05/07 04:21:19;;;;;;;;;;;17.20;61.90;;;;;;4194591;28;19960;-44
2021/05/07 04:23:42;;;;;;;;;;;17.20;62.20;;;;;;4194608;28;19924;-44
2021/05/07 04:26:03;;;;;;;;;;;17.10;62.20;;;;;;4194375;28;20438;-44
2021/05/07 04:28:24;;;;;;;;;;;17.10;62.30;;;;;;4194587;28;19920;-45
2021/05/07 04:30:45;;;;;;;;;;;17.10;62.40;;;;;;4177770;28;19920;-44
2021/05/07 04:33:06;;;;;;;;;;;17.00;62.70;;;;;;4177847;28;19927;-45
2021/05/07 04:35:27;;;;;;;;;;;16.90;62.80;;;;;;4177649;28;19921;-46
2021/05/07 04:37:48;;;;;;;;;;;16.90;63.00;;;;;;4177922;28;19929;-45
2021/05/07 04:40:10;;;;;;;;;;;16.80;63.30;;;;;;4177697;28;19944;-45
2021/05/07 04:42:31;;;;;;;;;;;16.80;63.70;;;;;;4177661;28;19920;-44
2021/05/07 04:44:52;;;;;;;;;;;16.80;63.80;;;;;;4190842;28;19924;-44
2021/05/07 04:47:12;;;;;;;;;;;16.80;63.50;;;;;;4192691;28;20363;-45
2021/05/07 04:49:33;;;;;;;;;;;16.90;63.10;;;;;;4194211;28;19925;-44
2021/05/07 04:51:54;;;;;;;;;;;17.00;62.90;;;;;;4194186;28;20306;-44
2021/05/07 04:54:15;;;;;;;;;;;17.00;62.90;;;;;;4194124;28;19931;-44
2021/05/07 04:56:37;;;;;;;;;;;17.00;62.80;;;;;;4194153;28;19920;-45
2021/05/07 04:58:57;;;;;;;;;;;16.90;62.80;;;;;;4193556;28;20432;-45
2021/05/07 05:01:18;;;;;;;;;;;17.10;62.90;;;;;;4193580;28;20015;-44
2021/05/07 05:03:39;;;;;;;;;;;17.20;62.40;;;;;;4193849;28;19924;-44
2021/05/07 05:06:00;;;;;;;;;;;17.20;62.10;;;;;;4193860;28;19924;-45
2021/05/07 05:08:21;;;;;;;;;;;17.30;61.90;;;;;;4193615;28;19943;-46
2021/05/07 05:10:42;;;;;;;;;;;17.30;61.90;;;;;;4193740;28;19926;-46
2021/05/07 05:13:04;;;;;;;;;;;17.30;61.90;;;;;;4193672;28;19920;-49
2021/05/07 05:15:25;;;;;;;;;;;17.20;61.90;;;;;;4193788;28;19920;-50
2021/05/07 05:17:46;;;;;;;;;;;17.20;62.20;;;;;;4193410;28;19924;-46
2021/05/07 05:20:07;;;;;;;;;;;17.10;62.30;;;;;;4193850;28;19924;-45
2021/05/07 05:22:29;;;;;;;;;;;17.10;62.60;;;;;;4193625;28;19930;-43
2021/05/07 05:24:49;;;;;;;;;;;17.10;62.60;;;;;;4193632;28;20344;-46
2021/05/07 05:27:10;;;;;;;;;;;17.10;62.90;;;;;;4193339;28;20393;-44
2021/05/07 05:29:32;;;;;;;;;;;17.20;63.00;;;;;;4193053;28;19920;-44
2021/05/07 05:31:52;;;;;;;;;;;17.20;63.00;;;;;;4194324;28;19924;-46
2021/05/07 05:34:13;;;;;;;;;;;17.10;63.10;;;;;;4193364;28;20302;-44
2021/05/07 05:36:34;;;;;;;;;;;17.10;63.50;;;;;;4193451;28;19982;-47
2021/05/07 05:38:55;;;;;;;;;;;17.00;63.80;;;;;;4193266;28;19924;-44
2021/05/07 05:41:16;;;;;;;;;;;16.90;64.10;;;;;;4192955;28;19947;-43
2021/05/07 05:43:36;;;;;;;;;;;16.80;64.50;;;;;;4192953;28;19943;-43
2021/05/07 05:45:58;;;;;;;;;;;16.70;64.70;;;;;;4191820;28;19925;-44
2021/05/07 05:48:19;;;;;;;;;;;16.70;64.90;;;;;;4191985;28;19924;-44
2021/05/07 05:50:41;;;;;;;;;;;16.80;64.90;;;;;;4192915;28;19927;-44
2021/05/07 05:53:02;;;;;;;;;;;16.80;64.70;;;;;;4193243;28;20012;-44
2021/05/07 05:55:23;;;;;;;;;;;16.90;64.60;;;;;;4193208;28;20632;-43
2021/05/07 05:57:44;;;;;;;;;;;16.90;64.40;;;;;;4193347;28;20010;-44
2021/05/07 06:00:05;;;;;;;;;;;16.90;64.10;;;;;;4193304;28;19921;-52
2021/05/07 06:02:32;;;;;;;;;;;16.90;64.10;;;;;;4192982;28;19924;-48
2021/05/07 06:04:53;;;;;;;;;;;17.00;63.90;;;;;;4192746;28;19974;-46
2021/05/07 06:07:13;;;;;;;;;;;17.00;63.90;;;;;;4193160;28;20019;-49
2021/05/07 06:09:34;;;;;;;;;;;16.90;63.80;;;;;;4193060;28;20644;-49
2021/05/07 06:11:55;;;;;;;;;;;16.90;63.90;;;;;;4193017;28;19924;-50
2021/05/07 06:14:15;;;;;;;;;;;16.90;63.60;;;;;;4193013;28;20303;-47
2021/05/07 06:16:37;;;;;;;;;;;16.80;63.00;;;;;;4192880;28;20609;-49
2021/05/07 06:18:58;;;;;;;;;;;16.80;63.20;;;;;;4192898;28;20027;-51
2021/05/07 06:21:19;;;;;;;;;;;16.70;63.40;;;;;;4192676;28;19927;-49
2021/05/07 06:23:40;;;;;;;;;;;16.70;64.00;;;;;;4192781;28;20452;-49
2021/05/07 06:26:02;;;;;;;;;;;16.70;63.60;;;;;;4192641;28;19932;-44
2021/05/07 06:28:23;;;;;;;;;;;16.60;62.50;;;;;;4192676;28;20003;-44
2021/05/07 06:30:44;;;;;;;;;;;16.60;62.70;;;;;;4192293;28;19938;-45
2021/05/07 06:33:05;;;;;;;;;;;16.60;62.60;;;;;;4192046;28;19924;-45
2021/05/07 06:35:27;;;;;;;;;;;16.50;62.60;;;;;;4192565;28;19924;-44
2021/05/07 06:37:48;;;;;;;;;;;16.50;62.40;;;;;;4192495;28;19974;-44
2021/05/07 06:40:09;;;;;;;;;;;16.50;62.20;;;;;;4191943;28;20504;-45
2021/05/07 06:42:32;;;;;;;;;;;16.50;62.20;;;;;;4192181;28;20005;-46
2021/05/07 06:44:53;;;;;;;;;;;16.40;62.00;;;;;;4175987;28;19960;-45
2021/05/07 06:47:15;;;;;;;;;;;16.40;61.80;;;;;;4189152;28;19920;-43
2021/05/07 06:49:36;;;;;;;;;;;16.40;61.70;;;;;;4192158;28;20002;-42
2021/05/07 06:51:58;;;;;;;;;;;16.40;61.50;;;;;;4192013;28;20024;-44
2021/05/07 06:54:24;;;;;;;;;;;16.40;61.30;;;;;;4175525;28;20379;-45
2021/05/07 06:56:45;;;;;;;;;;;16.30;61.30;;;;;;4175541;28;20441;-43
2021/05/07 06:59:07;;;;;;;;;;;16.30;61.30;;;;;;4175859;28;20671;-44
2021/05/07 07:01:28;;;;;;;;;;;16.30;61.40;;;;;;4186675;28;20022;-43
2021/05/07 07:03:49;;;;;;;;;;;16.30;61.00;;;;;;4185711;28;19974;-44
2021/05/07 07:06:10;;;;;;;;;;;16.40;60.90;;;;;;4191090;28;20370;-46
2021/05/07 07:08:31;;;;;;;;;;;16.40;61.80;;;;;;4191385;28;19927;-43
2021/05/07 07:10:52;;;;;;;;;;;16.30;60.90;;;;;;4191643;28;19974;-43
2021/05/07 07:13:14;;;;;;;;;;;16.40;60.80;;;;;;4177397;28;19947;-43
2021/05/07 07:15:35;;;;;;;;;;;16.40;60.70;;;;;;4189841;28;20010;-44
2021/05/07 07:17:56;;;;;;;;;;;16.50;60.70;;;;;;4190456;28;20318;-44
2021/05/07 07:20:17;;;;;;;;;;;16.50;60.50;;;;;;4190211;28;20042;-43
2021/05/07 07:22:38;;;;;;;;;;;16.50;60.50;;;;;;4174987;28;19932;-44
2021/05/07 07:25:00;;;;;;;;;;;16.50;60.30;;;;;;4158614;28;19925;-45
2021/05/07 07:27:21;;;;;;;;;;;16.40;60.20;;;;;;4158699;28;19925;-45
2021/05/07 07:29:42;;;;;;;;;;;16.50;59.90;;;;;;4159034;28;19924;-44
2021/05/07 07:32:03;;;;;;;;;;;16.40;59.80;;;;;;4187551;28;20287;-44
2021/05/07 07:34:23;;;;;;;;;;;16.40;59.60;;;;;;4192277;28;20011;-42
2021/05/07 07:36:45;;;;;;;;;;;16.40;59.60;;;;;;4191830;28;19920;-44
2021/05/07 07:39:06;;;;;;;;;;;16.30;59.60;;;;;;4191828;28;19924;-52
2021/05/07 07:41:28;;;;;;;;;;;16.40;59.60;;;;;;4191105;28;19925;-45
2021/05/07 07:43:49;;;;;;;;;;;16.30;59.50;;;;;;4181564;28;19925;-43
2021/05/07 07:46:10;;;;;;;;;;;16.30;59.50;;;;;;4191251;28;20014;-47
2021/05/07 07:48:31;;;;;;;;;;;16.30;59.50;;;;;;4191635;28;19969;-48
2021/05/07 07:50:52;;;;;;;;;;;16.30;59.30;;;;;;4191210;28;19921;-43
2021/05/07 07:53:12;;;;;;;;;;;16.20;59.30;;;;;;4191677;28;20481;-44
2021/05/07 07:55:34;;;;;;;;;;;16.20;59.40;;;;;;4175001;28;19925;-44
2021/05/07 07:57:56;;;;;;;;;;;16.20;59.40;;;;;;4174977;28;20371;-43
2021/05/07 08:00:17;;;;;;;;;;;16.20;59.40;;;;;;4179221;28;20379;-43
2021/05/07 08:02:38;;;;;;;;;;;16.10;59.20;;;;;;4191217;28;19921;-43
2021/05/07 08:04:59;;;;;;;;;;;16.10;59.30;;;;;;4188680;28;19920;-42
2021/05/07 08:07:20;;;;;;;;;;;16.00;59.20;;;;;;4191040;28;20011;-47
2021/05/07 08:09:41;;;;;;;;;;;16.00;59.20;;;;;;4190910;28;20383;-45
2021/05/07 08:12:02;;;;;;;;;;;16.00;59.50;;;;;;4174679;28;19924;-46
2021/05/07 08:14:24;;;;;;;;;;;16.00;59.30;;;;;;4190697;28;19925;-44
2021/05/07 08:16:45;;;;;;;;;;;15.90;59.20;;;;;;4190678;28;20446;-45
2021/05/07 08:19:06;;;;;;;;;;;15.90;59.30;;;;;;4191056;28;19921;-43
2021/05/07 08:21:29;;;;;;;;;;;15.90;59.30;;;;;;4191063;28;19924;-45
2021/05/07 08:23:50;;;;;;;;;;;15.90;59.00;;;;;;4174501;28;19939;-45
2021/05/07 08:26:11;;;;;;;;;;;15.90;59.00;;;;;;4174761;28;19925;-46
2021/05/07 08:28:31;;;;;;;;;;;15.90;58.80;;;;;;4186628;28;19924;-47
2021/05/07 08:30:53;;;;;;;;;;;15.90;59.00;;;;;;4190900;28;19928;-42
2021/05/07 08:33:19;;;;;;;;;;;15.90;58.80;;;;;;4190356;28;20698;-43
2021/05/07 08:35:39;;;;;;;;;;;15.90;58.90;;;;;;4191102;28;20420;-42
2021/05/07 08:38:00;;;;;;;;;;;15.90;59.00;;;;;;4190656;28;19927;-43
2021/05/07 08:40:21;;;;;;;;;;;15.90;59.10;;;;;;4191044;28;20722;-42
2021/05/07 08:42:42;;;;;;;;;;;15.90;59.10;;;;;;4191093;28;20019;-44
2021/05/07 08:45:04;;;;;;;;;;;15.90;59.00;;;;;;4190559;28;19924;-42
2021/05/07 08:47:28;;;;;;;;;;;15.90;59.00;;;;;;4180740;28;19924;-42
2021/05/07 08:49:50;;;;;;;;;;;15.90;58.70;;;;;;4190747;28;19924;-44
2021/05/07 08:52:12;;;;;;;;;;;15.90;58.60;;;;;;4190279;28;20020;-44
2021/05/07 08:54:33;;;;;;;;;;;15.90;58.50;;;;;;4187131;28;19924;-42
2021/05/07 08:56:54;;;;;;;;;;;16.00;58.40;;;;;;4190022;28;19920;-42
2021/05/07 08:59:14;;;;;;;;;;;16.00;58.30;;;;;;4190297;28;19924;-43
2021/05/07 09:01:39;;;;;;;;;;;16.00;58.40;;;;;;4174156;28;19928;-42
2021/05/07 09:04:08;;;;;;;;;;;16.00;58.30;;;;;;4176815;28;20002;-44
2021/05/07 09:06:29;;;;;;;;;;;16.00;58.60;;;;;;4188545;28;20018;-43
2021/05/07 09:08:50;;;;;;;;;;;15.90;58.40;;;;;;4193757;28;19924;-43
2021/05/07 09:11:11;;;;;;;;;;;15.90;58.30;;;;;;4193583;28;19928;-44
2021/05/07 09:13:33;;;;;;;;;;;15.90;58.10;;;;;;4193779;28;19920;-43
2021/05/07 09:15:53;;;;;;;;;;;15.90;58.20;;;;;;4193366;28;19921;-43
2021/05/07 09:18:15;;;;;;;;;;;15.90;58.40;;;;;;4193507;28;19952;-43
2021/05/07 09:20:37;;;;;;;;;;;15.90;58.30;;;;;;4193569;28;20023;-43
2021/05/07 09:23:02;;;;;;;;;;;16.00;58.40;;;;;;4192276;28;19924;-41
2021/05/07 09:25:23;;;;;;;;;;;16.00;57.80;;;;;;4190500;28;19921;-42
2021/05/07 09:27:45;;;;;;;;;;;15.90;57.90;;;;;;4175965;28;19931;-42
2021/05/07 09:30:09;;;;;;;;;;;15.90;58.00;;;;;;4180751;28;19924;-42
2021/05/07 09:32:31;;;;;;;;;;;15.90;57.90;;;;;;4184237;28;19938;-40
2021/05/07 09:34:52;;;;;;;;;;;15.90;57.70;;;;;;4185032;28;20341;-41
2021/05/07 09:37:14;;;;;;;;;;;15.90;57.60;;;;;;4193100;28;20394;-42
2021/05/07 09:39:36;;;;;;;;;;;16.00;57.60;;;;;;4190648;28;19924;-42
2021/05/07 09:41:57;;;;;;;;;;;16.00;57.50;;;;;;4193283;28;19924;-47
2021/05/07 09:44:19;;;;;;;;;;;16.10;57.00;;;;;;4193423;28;19928;-45
2021/05/07 09:46:40;;;;;;;;;;;16.10;56.80;;;;;;4193290;28;19928;-51
2021/05/07 09:49:01;;;;;;;;;;;16.00;56.90;;;;;;4193124;28;19928;-48
2021/05/07 09:51:26;;;;;;;;;;;16.00;56.90;;;;;;4190099;28;19920;-51
2021/05/07 09:53:48;;;;;;;;;;;16.10;57.00;;;;;;4190863;28;19969;-44
2021/05/07 09:56:10;;;;;;;;;;;16.10;56.80;;;;;;4193025;28;20449;-45
2021/05/07 09:58:31;;;;;;;;;;;16.10;56.60;;;;;;4193081;28;20014;-47
2021/05/07 10:00:51;;;;;;;;;;;16.10;56.70;;;;;;4193015;28;19927;-44
2021/05/07 10:03:12;;;;;;;;;;;16.10;56.70;;;;;;4193117;28;20374;-45
2021/05/07 10:05:34;;;;;;;;;;;16.20;56.80;;;;;;4193499;28;19947;-43
2021/05/07 10:07:57;;;;;;;;;;;16.20;56.90;;;;;;4192751;28;19947;-43
2021/05/07 10:10:20;;;;;;;;;;;16.20;56.60;;;;;;4192200;28;19924;-42
2021/05/07 10:12:44;;;;;;;;;;;16.30;56.30;;;;;;4191180;28;19925;-42
2021/05/07 10:15:05;;;;;;;;;;;16.30;56.10;;;;;;4185937;28;19924;-42
2021/05/07 10:17:26;;;;;;;;;;;16.30;55.60;;;;;;4189263;28;19920;-43
2021/05/07 10:19:48;;;;;;;;;;;16.20;55.50;;;;;;4192394;28;19993;-42
2021/05/07 10:22:16;;;;;;;;;;;16.30;55.60;;;;;;4191248;28;20471;-43
2021/05/07 10:24:38;;;;;;;;;;;16.20;55.70;;;;;;4192378;28;19950;-42
2021/05/07 10:27:00;;;;;;;;;;;16.20;55.70;;;;;;4192423;28;20447;-42
2021/05/07 10:29:21;;;;;;;;;;;16.20;55.80;;;;;;4191202;28;19920;-43
2021/05/07 10:31:47;;;;;;;;;;;16.20;55.80;;;;;;4192627;28;20374;-42
2021/05/07 10:34:08;;;;;;;;;;;16.20;55.90;;;;;;4192516;28;19928;-42
2021/05/07 10:36:48;;;;;;;;;;;16.20;55.20;;;;;;4192153;28;19967;-43
2021/05/07 10:39:16;;;;;;;;;;;16.20;54.70;;;;;;4192592;28;19931;-43
2021/05/07 10:41:37;;;;;;;;;;;16.20;54.50;;;;;;4192307;28;19928;-42
2021/05/07 10:43:59;;;;;;;;;;;16.20;54.70;;;;;;4191932;28;20363;-42
2021/05/07 10:46:20;;;;;;;;;;;16.10;54.90;;;;;;4191961;28;20720;-41
2021/05/07 10:48:50;;;;;;;;;;;16.10;55.50;;;;;;4192226;28;20434;-41
2021/05/07 10:51:14;;;;;;;;;;;16.10;55.30;;;;;;4184853;28;19920;-42
2021/05/07 10:53:35;;;;;;;;;;;16.10;55.00;;;;;;4191724;28;19927;-42
2021/05/07 10:55:57;;;;;;;;;;;16.10;54.80;;;;;;4175628;28;19964;-42
2021/05/07 10:58:18;;;;;;;;;;;16.10;55.00;;;;;;4175683;28;19925;-42
2021/05/07 11:00:39;;;;;;;;;;;16.00;54.90;;;;;;4175001;28;19964;-42
2021/05/07 11:03:00;;;;;;;;;;;16.00;54.90;;;;;;4175669;28;20019;-43
2021/05/07 11:05:35;;;;;;;;;;;16.00;54.80;;;;;;4190801;28;20007;-42
2021/05/07 11:07:56;;;;;;;;;;;16.10;54.80;;;;;;4191620;28;19924;-41
2021/05/07 11:10:16;;;;;;;;;;;16.10;55.00;;;;;;4191794;28;19928;-42
2021/05/07 11:12:37;;;;;;;;;;;16.00;54.70;;;;;;4189635;28;19920;-42
2021/05/07 11:14:58;;;;;;;;;;;16.00;54.80;;;;;;4192010;28;20333;-41
2021/05/07 11:17:20;;;;;;;;;;;16.00;55.30;;;;;;4191916;28;19920;-46
2021/05/07 11:19:43;;;;;;;;;;;16.00;55.40;;;;;;4191599;28;19925;-42
2021/05/07 11:22:04;;;;;;;;;;;16.00;55.60;;;;;;4190835;28;20388;-41
2021/05/07 11:24:27;;;;;;;;;;;16.00;55.70;;;;;;4189620;28;20375;-42
2021/05/07 11:26:47;;;;;;;;;;;16.00;55.70;;;;;;4190312;28;19924;-42
2021/05/07 11:29:09;;;;;;;;;;;16.00;56.00;;;;;;4190616;28;20444;-42
2021/05/07 11:31:30;;;;;;;;;;;16.00;56.70;;;;;;4190405;28;19924;-42
2021/05/07 11:33:51;;;;;;;;;;;16.00;56.80;;;;;;4191312;28;20306;-42
2021/05/07 11:36:13;;;;;;;;;;;16.00;56.50;;;;;;4191677;28;19927;-41
2021/05/07 11:38:34;;;;;;;;;;;16.00;56.10;;;;;;4191767;28;19927;-41
2021/05/07 11:40:55;;;;;;;;;;;16.00;56.40;;;;;;4191864;28;19946;-42
2021/05/07 11:43:16;;;;;;;;;;;16.00;56.70;;;;;;4191777;28;19924;-42
2021/05/07 11:45:37;;;;;;;;;;;16.10;57.00;;;;;;4190992;28;19924;-42
2021/05/07 11:47:58;;;;;;;;;;;16.10;57.00;;;;;;4191269;28;19924;-42
2021/05/07 11:50:20;;;;;;;;;;;16.00;57.20;;;;;;4191293;28;19947;-42
2021/05/07 11:52:42;;;;;;;;;;;16.10;57.50;;;;;;4173638;28;19927;-43
2021/05/07 11:55:03;;;;;;;;;;;16.10;57.40;;;;;;4176516;28;19921;-42
2021/05/07 11:57:24;;;;;;;;;;;16.10;57.20;;;;;;4187108;28;19989;-42
2021/05/07 11:59:49;;;;;;;;;;;16.10;57.30;;;;;;4174731;28;19960;-42
2021/05/07 12:02:10;;;;;;;;;;;16.00;56.90;;;;;;4179471;28;20359;-42
2021/05/07 12:04:41;;;;;;;;;;;16.00;56.60;;;;;;4191424;28;19952;-42
2021/05/07 12:07:04;;;;;;;;;;;16.00;56.40;;;;;;4191029;28;20024;-42
2021/05/07 12:09:25;;;;;;;;;;;16.10;56.10;;;;;;4191119;28;19924;-42
2021/05/07 12:11:54;;;;;;;;;;;16.00;56.30;;;;;;4191162;28;19924;-42
2021/05/07 12:14:15;;;;;;;;;;;16.00;56.40;;;;;;4189823;28;20003;-42
2021/05/07 12:16:36;;;;;;;;;;;16.10;56.50;;;;;;4189941;28;19924;-41
2021/05/07 12:19:19;;;;;;;;;;;16.10;56.60;;;;;;4190880;28;19927;-42
2021/05/07 12:22:06;;;;;;;;;;;16.10;56.80;;;;;;4191246;28;19931;-42
2021/05/07 12:24:52;;;;;;;;;;;16.00;56.40;;;;;;4191104;28;19935;-43
2021/05/07 12:27:25;;;;;;;;;;;16.10;57.20;;;;;;4191210;28;19924;-42
2021/05/07 12:29:46;;;;;;;;;;;16.00;56.70;;;;;;4190686;28;20279;-42
2021/05/07 12:32:08;;;;;;;;;;;16.10;56.50;;;;;;4174213;28;19935;-42
2021/05/07 12:34:29;;;;;;;;;;;16.00;56.00;;;;;;4174644;28;19928;-42
2021/05/07 12:36:57;;;;;;;;;;;16.10;55.70;;;;;;4174755;28;20366;-41
2021/05/07 12:39:24;;;;;;;;;;;16.10;55.90;;;;;;4177520;28;19925;-42
2021/05/07 12:41:44;;;;;;;;;;;16.10;55.90;;;;;;4177891;28;20386;-42
2021/05/07 12:44:05;;;;;;;;;;;16.10;56.20;;;;;;4177714;28;19928;-40
2021/05/07 12:46:25;;;;;;;;;;;16.10;56.10;;;;;;4177499;28;20505;-42
2021/05/07 12:48:47;;;;;;;;;;;16.10;56.20;;;;;;4177805;28;19947;-42
2021/05/07 12:51:09;;;;;;;;;;;16.10;56.80;;;;;;4188981;28;19927;-42
2021/05/07 12:53:30;;;;;;;;;;;16.10;56.30;;;;;;4194192;28;20484;-42
2021/05/07 12:55:52;;;;;;;;;;;16.10;56.70;;;;;;4193920;28;20015;-42
2021/05/07 12:58:13;;;;;;;;;;;16.10;56.00;;;;;;4193960;28;19931;-41
2021/05/07 13:00:33;;;;;;;;;;;16.10;56.00;;;;;;4192398;28;19931;-41
2021/05/07 13:02:54;;;;;;;;;;;16.10;55.60;;;;;;4193996;28;19924;-42
2021/05/07 13:05:15;;;;;;;;;;;16.20;55.50;;;;;;4193875;28;20375;-42
2021/05/07 13:07:35;;;;;;;;;;;16.20;55.60;;;;;;4192162;28;19931;-42
2021/05/07 13:09:57;;;;;;;;;;;16.10;55.40;;;;;;4193198;28;19935;-42
2021/05/07 13:12:19;;;;;;;;;;;16.20;55.10;;;;;;4193020;28;19920;-42
2021/05/07 13:14:41;;;;;;;;;;;16.10;55.20;;;;;;4193907;28;19931;-44
2021/05/07 13:17:03;;;;;;;;;;;16.10;55.00;;;;;;4181020;28;20288;-42
2021/05/07 13:19:24;;;;;;;;;;;16.20;55.10;;;;;;4184029;28;20387;-41
2021/05/07 13:21:45;;;;;;;;;;;16.10;55.20;;;;;;4174462;28;19920;-41
2021/05/07 13:24:08;;;;;;;;;;;16.20;55.20;;;;;;4193394;28;19978;-41
2021/05/07 13:26:29;;;;;;;;;;;16.20;55.00;;;;;;4176968;28;19921;-44
2021/05/07 13:28:55;;;;;;;;;;;16.20;54.80;;;;;;4177386;28;19925;-42
2021/05/07 13:31:16;;;;;;;;;;;16.20;54.90;;;;;;4176127;28;20015;-41
2021/05/07 13:33:37;;;;;;;;;;;16.20;55.00;;;;;;4187203;28;19925;-42
2021/05/07 13:35:58;;;;;;;;;;;16.20;54.50;;;;;;4192971;28;20432;-42
2021/05/07 13:38:19;;;;;;;;;;;16.20;54.60;;;;;;4190231;28;19943;-42
2021/05/07 13:40:40;;;;;;;;;;;16.20;54.90;;;;;;4191840;28;20054;-44
2021/05/07 13:43:02;;;;;;;;;;;16.20;54.70;;;;;;4193037;28;19940;-42
2021/05/07 13:45:24;;;;;;;;;;;16.20;54.20;;;;;;4192227;28;20037;-43